Flight Track Log - Related Links

Times and Time Zones

All times are in EST time to prevent confusion due to time zone crossing. See the N646BD flight status page for this flight to view local times or setup timezone preferences in your user account.


Time Position Orientation Groundspeed Altitude Reporting Facility
EST Latitude Longitude Course Direction KTS MPH feet Rate Location/Type
Tue 09:23:15 AM 34.0167 -84.5667 360° North 116 133 2,500  Level Atlanta TRACON
Tue 09:24:09 AM 34.0667 -84.5667 360° North 145 167 3,600 1,129 Climbing Atlanta TRACON
Tue 09:24:56 AM 34.0958 -84.5706 354° North 147 169 4,400 1,121 Climbing Atlanta Center
Tue 09:25:56 AM 34.1333 -84.5583 15° North 141 162 5,600 1,150 Climbing Atlanta Center
Tue 09:26:56 AM 34.1667 -84.5483 14° North 146 168 6,700 1,100 Climbing Atlanta Center
Tue 09:27:56 AM 34.2064 -84.5411 North 159 183 7,800 1,000 Climbing Atlanta Center
Tue 09:28:56 AM 34.2419 -84.5339 10° North 159 183 8,700 1,000 Climbing Atlanta Center
Tue 09:29:56 AM 34.2839 -84.5267 North 149 171 9,800 1,050 Climbing Atlanta Center
Tue 09:30:56 AM 34.3233 -84.5142 15° North 143 165 10,800 600 Climbing Atlanta Center
Tue 09:31:56 AM 34.3675 -84.4969 18° North 151 174 11,000 100 Climbing Atlanta Center
Tue 09:32:56 AM 34.4175 -84.4794 16° North 169 194 11,000  Level Atlanta Center
Tue 09:33:56 AM 34.4678 -84.4619 16° North 179 206 11,000  Level Atlanta Center
Tue 09:34:56 AM 34.5242 -84.4422 16° North 185 213 11,000  Level Atlanta Center
Tue 09:35:56 AM 34.5742 -84.4247 16° North 185 213 11,000  Level Atlanta Center
Tue 09:36:56 AM 34.6244 -84.4097 14° North 185 213 11,000  Level Atlanta Center
Tue 09:37:56 AM 34.6767 -84.3900 17° North 185 213 11,000  Level Atlanta Center
Tue 09:38:56 AM 34.7267 -84.3725 16° North 185 213 11,000  Level Atlanta Center
Tue 09:39:56 AM 34.7769 -84.3547 16° North 185 213 11,000  Level Atlanta Center
Tue 09:40:56 AM 34.8292 -84.3375 15° North 185 213 11,000  Level Atlanta Center
Tue 09:41:56 AM 34.8814 -84.3197 16° North 185 213 11,000  Level Atlanta Center
Tue 09:42:56 AM 34.9314 -84.3072 12° North 185 213 11,000  Level Atlanta Center
Tue 09:43:56 AM 34.9836 -84.2897 15° North 185 213 11,000  Level Atlanta Center
Tue 09:44:56 AM 35.0358 -84.2697 17° North 185 213 11,000  Level Atlanta Center
Tue 09:45:56 AM 35.0881 -84.2519 16° North 185 213 11,000  Level Atlanta Center
Tue 09:46:56 AM 35.1403 -84.2344 15° North 185 213 11,000  Level Atlanta Center
Tue 09:47:56 AM 35.1944 -84.2167 15° North 185 213 11,000  Level Atlanta Center
Tue 09:48:56 AM 35.2467 -84.1964 18° North 185 213 11,000  Level Atlanta Center
Tue 09:49:56 AM 35.2989 -84.1761 18° North 185 213 11,000 -350 Level Atlanta Center
Tue 09:50:56 AM 35.3553 -84.1558 16° North 185 213 10,300 -500 Descending Atlanta Center
Tue 09:51:56 AM 35.4117 -84.1381 14° North 197 227 10,000 -150 Descending Atlanta Center
Tue 09:52:56 AM 35.4636 -84.1458 353° North 197 227 10,000 -150 Level Atlanta Center
Tue 09:53:56 AM 35.5136 -84.1739 335° Northwest 192 221 9,700 -600 Descending Atlanta Center
Tue 09:54:56 AM 35.5681 -84.2047 335° Northwest 203 234 8,800 -850 Descending Atlanta Center
Tue 09:55:56 AM 35.6264 -84.2175 350° North 209 241 8,000 -800 Descending Atlanta Center
Tue 09:57:00 AM 35.6577 -84.1743 48° Northeast  Level FlightAware Approximate
Tue 10:04:00 AM 35.8000 -83.9833 39° Northeast  Level FlightAware Approximate
Tue 10:05:00 AM 35.8110 -83.9940 39° Northeast  Level Estimated
Tue 10:06:00 AM 35.8110 -83.9940 39° Northeast  Level Estimated
Tue 10:07:00 AM 35.8110 -83.9940 39° Northeast  Level Estimated
Tue 10:08:00 AM 35.8110 -83.9940 39° Northeast  Level Estimated
Tue 10:09:00 AM 35.8110 -83.9940 39° Northeast  Level Estimated

Login

Don't have an account? Register now (free) for customized features, flight alerts, and more!